sensor_id;sensor_type;location;lat;lon;timestamp;temperature;humidity
3528;DHT22;1778;47.966;7.854;2024-01-15T00:00:48;-1.00;99.90
3528;DHT22;1778;47.966;7.854;2024-01-15T00:01:50;-1.00;99.90
3528;DHT22;1778;47.966;7.854;2024-01-15T00:02:51;-1.00;99.90
3528;DHT22;1778;47.966;7.854;2024-01-15T00:03:53;-1.00;99.90
3528;DHT22;1778;47.966;7.854;2024-01-15T00:04:55;-1.00;99.90
3528;DHT22;1778;47.966;7.854;2024-01-15T00:05:56;-1.00;99.90
3528;DHT22;1778;47.966;7.854;2024-01-15T00:06:57;-1.10;99.90
3528;DHT22;1778;47.966;7.854;2024-01-15T00:07:59;-1.10;99.90
3528;DHT22;1778;47.966;7.854;2024-01-15T00:09:00;-1.10;99.90
3528;DHT22;1778;47.966;7.854;2024-01-15T00:10:02;-1.10;99.90
3528;DHT22;1778;47.966;7.854;2024-01-15T00:11:04;-1.10;99.90
3528;DHT22;1778;47.966;7.854;2024-01-15T00:12:06;-1.10;99.90
3528;DHT22;1778;47.966;7.854;2024-01-15T00:13:07;-1.10;99.90
3528;DHT22;1778;47.966;7.854;2024-01-15T00:14:09;-1.20;99.90
3528;DHT22;1778;47.966;7.854;2024-01-15T00:15:10;-1.20;99.90
3528;DHT22;1778;47.966;7.854;2024-01-15T00:16:12;-1.20;99.90
3528;DHT22;1778;47.966;7.854;2024-01-15T00:17:13;-1.30;99.90
3528;DHT22;1778;47.966;7.854;2024-01-15T00:18:14;-1.30;99.90
3528;DHT22;1778;47.966;7.854;2024-01-15T00:19:16;-1.30;99.90
3528;DHT22;1778;47.966;7.854;2024-01-15T00:20:18;-1.40;99.90
3528;DHT22;1778;47.966;7.854;2024-01-15T00:21:19;-1.40;99.90
3528;DHT22;1778;47.966;7.854;2024-01-15T00:22:20;-1.40;99.90
3528;DHT22;1778;47.966;7.854;2024-01-15T00:23:22;-1.40;99.90
3528;DHT22;1778;47.966;7.854;2024-01-15T00:24:24;-1.40;99.90
3528;DHT22;1778;47.966;7.854;2024-01-15T00:25:25;-1.40;99.90
3528;DHT22;1778;47.966;7.854;2024-01-15T00:26:27;-1.50;99.90
3528;DHT22;1778;47.966;7.854;2024-01-15T00:27:28;-1.50;99.90
3528;DHT22;1778;47.966;7.854;2024-01-15T00:28:30;-1.50;99.90
3528;DHT22;1778;47.966;7.854;2024-01-15T00:29:31;-1.50;99.90
3528;DHT22;1778;47.966;7.854;2024-01-15T00:30:32;-1.40;99.90
3528;DHT22;1778;47.966;7.854;2024-01-15T00:31:35;-1.50;99.90
3528;DHT22;1778;47.966;7.854;2024-01-15T00:32:36;-1.50;99.90
3528;DHT22;1778;47.966;7.854;2024-01-15T00:33:38;-1.50;99.90
3528;DHT22;1778;47.966;7.854;2024-01-15T00:34:39;-1.60;99.90
3528;DHT22;1778;47.966;7.854;2024-01-15T00:35:41;-1.60;99.90
3528;DHT22;1778;47.966;7.854;2024-01-15T00:36:42;-1.60;99.90
3528;DHT22;1778;47.966;7.854;2024-01-15T00:37:45;-1.70;99.90
3528;DHT22;1778;47.966;7.854;2024-01-15T00:38:46;-1.80;99.90
3528;DHT22;1778;47.966;7.854;2024-01-15T00:39:48;-1.90;99.90
3528;DHT22;1778;47.966;7.854;2024-01-15T00:40:50;-1.90;99.90
3528;DHT22;1778;47.966;7.854;2024-01-15T00:41:51;-1.90;99.90
3528;DHT22;1778;47.966;7.854;2024-01-15T00:42:53;-1.90;99.90
3528;DHT22;1778;47.966;7.854;2024-01-15T00:43:54;-2.00;99.90
3528;DHT22;1778;47.966;7.854;2024-01-15T00:44:57;-2.00;99.90
3528;DHT22;1778;47.966;7.854;2024-01-15T00:46:01;-2.00;99.90
3528;DHT22;1778;47.966;7.854;2024-01-15T00:47:02;-2.10;99.90
3528;DHT22;1778;47.966;7.854;2024-01-15T00:48:04;-2.10;99.90
3528;DHT22;1778;47.966;7.854;2024-01-15T00:49:06;-2.10;99.90
3528;DHT22;1778;47.966;7.854;2024-01-15T00:50:07;-2.10;99.90
3528;DHT22;1778;47.966;7.854;2024-01-15T00:51:09;-2.10;99.90
3528;DHT22;1778;47.966;7.854;2024-01-15T00:52:11;-2.20;99.90
3528;DHT22;1778;47.966;7.854;2024-01-15T00:53:12;-2.20;99.90
3528;DHT22;1778;47.966;7.854;2024-01-15T00:54:14;-2.20;99.90
3528;DHT22;1778;47.966;7.854;2024-01-15T00:55:15;-2.20;99.90
3528;DHT22;1778;47.966;7.854;2024-01-15T00:56:17;-2.20;99.90
3528;DHT22;1778;47.966;7.854;2024-01-15T00:57:18;-2.30;99.90
3528;DHT22;1778;47.966;7.854;2024-01-15T00:58:20;-2.30;99.90
3528;DHT22;1778;47.966;7.854;2024-01-15T00:59:22;-2.30;99.90
3528;DHT22;1778;47.966;7.854;2024-01-15T01:00:23;-2.30;99.90
3528;DHT22;1778;47.966;7.854;2024-01-15T01:01:25;-2.30;99.90
3528;DHT22;1778;47.966;7.854;2024-01-15T01:02:26;-2.30;99.90
3528;DHT22;1778;47.966;7.854;2024-01-15T01:03:28;-2.30;99.90
3528;DHT22;1778;47.966;7.854;2024-01-15T01:04:29;-2.30;99.90
3528;DHT22;1778;47.966;7.854;2024-01-15T01:05:31;-2.30;99.90
3528;DHT22;1778;47.966;7.854;2024-01-15T01:06:32;-2.40;99.90
3528;DHT22;1778;47.966;7.854;2024-01-15T01:07:34;-2.40;99.90
3528;DHT22;1778;47.966;7.854;2024-01-15T01:08:36;-2.40;99.90
3528;DHT22;1778;47.966;7.854;2024-01-15T01:09:37;-2.40;99.90
3528;DHT22;1778;47.966;7.854;2024-01-15T01:10:39;-2.40;99.90
3528;DHT22;1778;47.966;7.854;2024-01-15T01:11:41;-2.40;99.90
3528;DHT22;1778;47.966;7.854;2024-01-15T01:12:43;-2.40;99.90
3528;DHT22;1778;47.966;7.854;2024-01-15T01:13:44;-2.40;99.90
3528;DHT22;1778;47.966;7.854;2024-01-15T01:14:45;-2.40;99.90
3528;DHT22;1778;47.966;7.854;2024-01-15T01:15:47;-2.40;99.90
3528;DHT22;1778;47.966;7.854;2024-01-15T01:16:48;-2.40;99.90
3528;DHT22;1778;47.966;7.854;2024-01-15T01:17:50;-2.40;99.90
3528;DHT22;1778;47.966;7.854;2024-01-15T01:18:51;-2.40;99.90
3528;DHT22;1778;47.966;7.854;2024-01-15T01:19:53;-2.40;99.90
3528;DHT22;1778;47.966;7.854;2024-01-15T01:20:55;-2.40;99.90
3528;DHT22;1778;47.966;7.854;2024-01-15T01:21:56;-2.50;99.90
3528;DHT22;1778;47.966;7.854;2024-01-15T01:22:58;-2.50;99.90
3528;DHT22;1778;47.966;7.854;2024-01-15T01:23:59;-2.50;99.90
3528;DHT22;1778;47.966;7.854;2024-01-15T01:25:00;-2.50;99.90
3528;DHT22;1778;47.966;7.854;2024-01-15T01:26:02;-2.50;99.90
3528;DHT22;1778;47.966;7.854;2024-01-15T01:27:04;-2.50;99.90
3528;DHT22;1778;47.966;7.854;2024-01-15T01:28:05;-2.50;99.90
3528;DHT22;1778;47.966;7.854;2024-01-15T01:29:06;-2.50;99.90
3528;DHT22;1778;47.966;7.854;2024-01-15T01:30:08;-2.50;99.90
3528;DHT22;1778;47.966;7.854;2024-01-15T01:31:10;-2.50;99.90
3528;DHT22;1778;47.966;7.854;2024-01-15T01:32:12;-2.50;99.90
3528;DHT22;1778;47.966;7.854;2024-01-15T01:33:13;-2.50;99.90
3528;DHT22;1778;47.966;7.854;2024-01-15T01:34:16;-2.50;99.90
3528;DHT22;1778;47.966;7.854;2024-01-15T01:35:17;-2.50;99.90
3528;DHT22;1778;47.966;7.854;2024-01-15T01:36:19;-2.50;99.90
3528;DHT22;1778;47.966;7.854;2024-01-15T01:37:20;-2.50;99.90
3528;DHT22;1778;47.966;7.854;2024-01-15T01:38:22;-2.50;99.90
3528;DHT22;1778;47.966;7.854;2024-01-15T01:39:23;-2.40;99.90
3528;DHT22;1778;47.966;7.854;2024-01-15T01:40:25;-2.50;99.90
3528;DHT22;1778;47.966;7.854;2024-01-15T01:41:26;-2.40;99.90
3528;DHT22;1778;47.966;7.854;2024-01-15T01:42:27;-2.40;99.90
3528;DHT22;1778;47.966;7.854;2024-01-15T01:43:29;-2.50;99.90
3528;DHT22;1778;47.966;7.854;2024-01-15T01:44:31;-2.40;99.90
3528;DHT22;1778;47.966;7.854;2024-01-15T01:45:32;-2.40;99.90
3528;DHT22;1778;47.966;7.854;2024-01-15T01:46:36;-2.40;99.90
3528;DHT22;1778;47.966;7.854;2024-01-15T01:47:42;-2.40;99.90
3528;DHT22;1778;47.966;7.854;2024-01-15T01:48:43;-2.40;99.90
3528;DHT22;1778;47.966;7.854;2024-01-15T01:49:46;-2.40;99.90
3528;DHT22;1778;47.966;7.854;2024-01-15T01:50:47;-2.40;99.90
3528;DHT22;1778;47.966;7.854;2024-01-15T01:51:49;-2.30;99.90
3528;DHT22;1778;47.966;7.854;2024-01-15T01:52:51;-2.30;99.90
3528;DHT22;1778;47.966;7.854;2024-01-15T01:53:52;-2.30;99.90
3528;DHT22;1778;47.966;7.854;2024-01-15T01:54:54;-2.20;99.90
3528;DHT22;1778;47.966;7.854;2024-01-15T01:55:57;-2.20;99.90
3528;DHT22;1778;47.966;7.854;2024-01-15T01:56:58;-2.20;99.90
3528;DHT22;1778;47.966;7.854;2024-01-15T01:58:01;-2.10;99.90
3528;DHT22;1778;47.966;7.854;2024-01-15T01:59:04;-2.10;99.90
3528;DHT22;1778;47.966;7.854;2024-01-15T02:00:06;-2.10;99.90
3528;DHT22;1778;47.966;7.854;2024-01-15T02:01:15;-2.00;99.90
3528;DHT22;1778;47.966;7.854;2024-01-15T02:02:17;-2.00;99.90
3528;DHT22;1778;47.966;7.854;2024-01-15T02:03:19;-2.00;99.90
3528;DHT22;1778;47.966;7.854;2024-01-15T02:04:24;-1.90;99.90
3528;DHT22;1778;47.966;7.854;2024-01-15T02:05:26;-1.90;99.90
3528;DHT22;1778;47.966;7.854;2024-01-15T02:06:28;-1.90;99.90
3528;DHT22;1778;47.966;7.854;2024-01-15T02:07:31;-1.80;99.90
3528;DHT22;1778;47.966;7.854;2024-01-15T02:08:33;-1.80;99.90
3528;DHT22;1778;47.966;7.854;2024-01-15T02:09:35;-1.80;99.90
3528;DHT22;1778;47.966;7.854;2024-01-15T02:10:43;-1.80;99.90
3528;DHT22;1778;47.966;7.854;2024-01-15T02:11:46;-1.80;99.90
3528;DHT22;1778;47.966;7.854;2024-01-15T02:12:48;-1.80;99.90
3528;DHT22;1778;47.966;7.854;2024-01-15T02:13:50;-1.70;99.90
3528;DHT22;1778;47.966;7.854;2024-01-15T02:14:52;-1.70;99.90
3528;DHT22;1778;47.966;7.854;2024-01-15T02:15:53;-1.60;99.90
3528;DHT22;1778;47.966;7.854;2024-01-15T02:16:55;-1.60;99.90
3528;DHT22;1778;47.966;7.854;2024-01-15T02:18:00;-1.60;99.90
3528;DHT22;1778;47.966;7.854;2024-01-15T02:19:03;-1.60;99.90
3528;DHT22;1778;47.966;7.854;2024-01-15T02:20:05;-1.50;99.90
3528;DHT22;1778;47.966;7.854;2024-01-15T02:21:07;-1.50;99.90
3528;DHT22;1778;47.966;7.854;2024-01-15T02:22:08;-1.50;99.90
3528;DHT22;1778;47.966;7.854;2024-01-15T02:23:11;-1.50;99.90
3528;DHT22;1778;47.966;7.854;2024-01-15T02:24:13;-1.50;99.90
3528;DHT22;1778;47.966;7.854;2024-01-15T02:25:14;-1.40;99.90
3528;DHT22;1778;47.966;7.854;2024-01-15T02:26:16;-1.40;99.90
3528;DHT22;1778;47.966;7.854;2024-01-15T02:27:17;-1.40;99.90
3528;DHT22;1778;47.966;7.854;2024-01-15T02:28:20;-1.40;99.90
3528;DHT22;1778;47.966;7.854;2024-01-15T02:29:22;-1.40;99.90
3528;DHT22;1778;47.966;7.854;2024-01-15T02:30:25;-1.30;99.90
3528;DHT22;1778;47.966;7.854;2024-01-15T02:31:26;-1.40;99.90
3528;DHT22;1778;47.966;7.854;2024-01-15T02:32:28;-1.40;99.90
3528;DHT22;1778;47.966;7.854;2024-01-15T02:33:30;-1.40;99.90
3528;DHT22;1778;47.966;7.854;2024-01-15T02:34:32;-1.30;99.90
3528;DHT22;1778;47.966;7.854;2024-01-15T02:35:35;-1.20;99.90
3528;DHT22;1778;47.966;7.854;2024-01-15T02:36:39;-1.20;99.90
3528;DHT22;1778;47.966;7.854;2024-01-15T02:37:41;-1.20;99.90
3528;DHT22;1778;47.966;7.854;2024-01-15T02:38:42;-1.20;99.90
3528;DHT22;1778;47.966;7.854;2024-01-15T02:39:44;-1.20;99.90
3528;DHT22;1778;47.966;7.854;2024-01-15T02:40:47;-1.20;99.90
3528;DHT22;1778;47.966;7.854;2024-01-15T02:41:48;-1.10;99.90
3528;DHT22;1778;47.966;7.854;2024-01-15T02:42:50;-1.10;99.90
3528;DHT22;1778;47.966;7.854;2024-01-15T02:43:52;-1.10;99.90
3528;DHT22;1778;47.966;7.854;2024-01-15T02:44:53;-1.10;99.90
3528;DHT22;1778;47.966;7.854;2024-01-15T02:45:55;-1.10;99.90
3528;DHT22;1778;47.966;7.854;2024-01-15T02:46:56;-1.10;99.90
3528;DHT22;1778;47.966;7.854;2024-01-15T02:47:58;-1.20;99.90
3528;DHT22;1778;47.966;7.854;2024-01-15T02:48:59;-1.10;99.90
3528;DHT22;1778;47.966;7.854;2024-01-15T02:50:01;-1.20;99.90
3528;DHT22;1778;47.966;7.854;2024-01-15T02:51:03;-1.20;99.90
3528;DHT22;1778;47.966;7.854;2024-01-15T02:52:05;-1.20;99.90
3528;DHT22;1778;47.966;7.854;2024-01-15T02:53:06;-1.20;99.90
3528;DHT22;1778;47.966;7.854;2024-01-15T02:54:08;-1.20;99.90
3528;DHT22;1778;47.966;7.854;2024-01-15T02:55:10;-1.20;99.90
3528;DHT22;1778;47.966;7.854;2024-01-15T02:56:11;-1.20;99.90
3528;DHT22;1778;47.966;7.854;2024-01-15T02:57:13;-1.20;99.90
3528;DHT22;1778;47.966;7.854;2024-01-15T02:58:14;-1.20;99.90
3528;DHT22;1778;47.966;7.854;2024-01-15T02:59:16;-1.20;99.90
3528;DHT22;1778;47.966;7.854;2024-01-15T03:00:18;-1.20;99.90
3528;DHT22;1778;47.966;7.854;2024-01-15T03:01:19;-1.10;99.90
3528;DHT22;1778;47.966;7.854;2024-01-15T03:02:21;-1.10;99.90
3528;DHT22;1778;47.966;7.854;2024-01-15T03:03:23;-1.10;99.90
3528;DHT22;1778;47.966;7.854;2024-01-15T03:04:24;-1.10;99.90
3528;DHT22;1778;47.966;7.854;2024-01-15T03:05:26;-1.00;99.90
3528;DHT22;1778;47.966;7.854;2024-01-15T03:06:28;-1.00;99.90
3528;DHT22;1778;47.966;7.854;2024-01-15T03:07:30;-1.00;99.90
3528;DHT22;1778;47.966;7.854;2024-01-15T03:08:31;-1.00;99.90
3528;DHT22;1778;47.966;7.854;2024-01-15T03:09:33;-1.00;99.90
3528;DHT22;1778;47.966;7.854;2024-01-15T03:10:34;-1.00;99.90
3528;DHT22;1778;47.966;7.854;2024-01-15T03:11:39;-1.00;99.90
3528;DHT22;1778;47.966;7.854;2024-01-15T03:12:41;-1.00;99.90
3528;DHT22;1778;47.966;7.854;2024-01-15T03:13:43;-1.00;99.90
3528;DHT22;1778;47.966;7.854;2024-01-15T03:14:44;-1.00;99.90
3528;DHT22;1778;47.966;7.854;2024-01-15T03:15:46;-1.00;99.90
3528;DHT22;1778;47.966;7.854;2024-01-15T03:16:47;-1.00;99.90
3528;DHT22;1778;47.966;7.854;2024-01-15T03:17:49;-1.00;99.90
3528;DHT22;1778;47.966;7.854;2024-01-15T03:18:51;-1.00;99.90
3528;DHT22;1778;47.966;7.854;2024-01-15T03:19:52;-1.00;99.90
3528;DHT22;1778;47.966;7.854;2024-01-15T03:20:54;-1.00;99.90
3528;DHT22;1778;47.966;7.854;2024-01-15T03:21:56;-1.00;99.90
3528;DHT22;1778;47.966;7.854;2024-01-15T03:22:58;-1.00;99.90
3528;DHT22;1778;47.966;7.854;2024-01-15T03:23:59;-1.00;99.90
3528;DHT22;1778;47.966;7.854;2024-01-15T03:25:01;-1.00;99.90
3528;DHT22;1778;47.966;7.854;2024-01-15T03:26:03;-1.00;99.90
3528;DHT22;1778;47.966;7.854;2024-01-15T03:27:05;-1.00;99.90
3528;DHT22;1778;47.966;7.854;2024-01-15T03:28:06;-1.00;99.90
3528;DHT22;1778;47.966;7.854;2024-01-15T03:29:08;-0.90;99.90
3528;DHT22;1778;47.966;7.854;2024-01-15T03:30:10;-1.00;99.90
3528;DHT22;1778;47.966;7.854;2024-01-15T03:31:12;-1.00;99.90
3528;DHT22;1778;47.966;7.854;2024-01-15T03:32:13;-0.90;99.90
3528;DHT22;1778;47.966;7.854;2024-01-15T03:33:15;-0.90;99.90
3528;DHT22;1778;47.966;7.854;2024-01-15T03:34:17;-1.00;99.90
3528;DHT22;1778;47.966;7.854;2024-01-15T03:35:19;-0.90;99.90
3528;DHT22;1778;47.966;7.854;2024-01-15T03:36:20;-0.80;99.90
3528;DHT22;1778;47.966;7.854;2024-01-15T03:37:22;-0.80;99.90
3528;DHT22;1778;47.966;7.854;2024-01-15T03:38:23;-0.90;99.90
3528;DHT22;1778;47.966;7.854;2024-01-15T03:39:25;-0.90;99.90
3528;DHT22;1778;47.966;7.854;2024-01-15T03:40:26;-0.90;99.90
3528;DHT22;1778;47.966;7.854;2024-01-15T03:41:28;-0.90;99.90
3528;DHT22;1778;47.966;7.854;2024-01-15T03:42:30;-0.90;99.90
3528;DHT22;1778;47.966;7.854;2024-01-15T03:43:31;-0.90;99.90
3528;DHT22;1778;47.966;7.854;2024-01-15T03:44:33;-1.00;99.90
3528;DHT22;1778;47.966;7.854;2024-01-15T03:45:35;-1.00;99.90
3528;DHT22;1778;47.966;7.854;2024-01-15T03:46:36;-1.00;99.90
3528;DHT22;1778;47.966;7.854;2024-01-15T03:47:37;-1.00;99.90
3528;DHT22;1778;47.966;7.854;2024-01-15T03:48:39;-1.00;99.90
3528;DHT22;1778;47.966;7.854;2024-01-15T03:49:41;-1.00;99.90
3528;DHT22;1778;47.966;7.854;2024-01-15T03:50:43;-1.00;99.90
3528;DHT22;1778;47.966;7.854;2024-01-15T03:51:45;-1.00;99.90
3528;DHT22;1778;47.966;7.854;2024-01-15T03:52:46;-1.00;99.90
3528;DHT22;1778;47.966;7.854;2024-01-15T03:53:48;-1.00;99.90
3528;DHT22;1778;47.966;7.854;2024-01-15T03:54:49;-1.00;99.90
3528;DHT22;1778;47.966;7.854;2024-01-15T03:55:52;-1.00;99.90
3528;DHT22;1778;47.966;7.854;2024-01-15T03:56:53;-1.10;99.90
3528;DHT22;1778;47.966;7.854;2024-01-15T03:57:55;-1.00;99.90
3528;DHT22;1778;47.966;7.854;2024-01-15T03:58:57;-1.10;99.90
3528;DHT22;1778;47.966;7.854;2024-01-15T03:59:58;-1.00;99.90
3528;DHT22;1778;47.966;7.854;2024-01-15T04:00:59;-1.00;99.90
3528;DHT22;1778;47.966;7.854;2024-01-15T04:02:01;-1.00;99.90
3528;DHT22;1778;47.966;7.854;2024-01-15T04:03:03;-1.00;99.90
3528;DHT22;1778;47.966;7.854;2024-01-15T04:04:04;-1.10;99.90
3528;DHT22;1778;47.966;7.854;2024-01-15T04:05:06;-1.00;99.90
3528;DHT22;1778;47.966;7.854;2024-01-15T04:06:07;-1.00;99.90
3528;DHT22;1778;47.966;7.854;2024-01-15T04:07:11;-1.00;99.90
3528;DHT22;1778;47.966;7.854;2024-01-15T04:08:13;-1.00;99.90
3528;DHT22;1778;47.966;7.854;2024-01-15T04:09:14;-1.00;99.90
3528;DHT22;1778;47.966;7.854;2024-01-15T04:10:16;-1.00;99.90
3528;DHT22;1778;47.966;7.854;2024-01-15T04:11:17;-1.00;99.90
3528;DHT22;1778;47.966;7.854;2024-01-15T04:12:19;-1.00;99.90
3528;DHT22;1778;47.966;7.854;2024-01-15T04:13:21;-0.90;99.90
3528;DHT22;1778;47.966;7.854;2024-01-15T04:14:23;-1.00;99.90
3528;DHT22;1778;47.966;7.854;2024-01-15T04:15:24;-1.00;99.90
3528;DHT22;1778;47.966;7.854;2024-01-15T04:16:26;-0.90;99.90
3528;DHT22;1778;47.966;7.854;2024-01-15T04:17:28;-0.90;99.90
3528;DHT22;1778;47.966;7.854;2024-01-15T04:18:30;-0.90;99.90
3528;DHT22;1778;47.966;7.854;2024-01-15T04:19:31;-0.90;99.90
3528;DHT22;1778;47.966;7.854;2024-01-15T04:20:33;-0.90;99.90
3528;DHT22;1778;47.966;7.854;2024-01-15T04:21:34;-0.90;99.90
3528;DHT22;1778;47.966;7.854;2024-01-15T04:22:36;-0.90;99.90
3528;DHT22;1778;47.966;7.854;2024-01-15T04:23:39;-0.90;99.90
3528;DHT22;1778;47.966;7.854;2024-01-15T04:24:40;-0.90;99.90
3528;DHT22;1778;47.966;7.854;2024-01-15T04:25:42;-0.90;99.90
3528;DHT22;1778;47.966;7.854;2024-01-15T04:26:45;-0.90;99.90
3528;DHT22;1778;47.966;7.854;2024-01-15T04:27:47;-0.90;99.90
3528;DHT22;1778;47.966;7.854;2024-01-15T04:28:49;-0.90;99.90
3528;DHT22;1778;47.966;7.854;2024-01-15T04:29:50;-0.90;99.90
3528;DHT22;1778;47.966;7.854;2024-01-15T04:30:52;-0.90;99.90
3528;DHT22;1778;47.966;7.854;2024-01-15T04:31:53;-0.90;99.90
3528;DHT22;1778;47.966;7.854;2024-01-15T04:32:55;-0.90;99.90
3528;DHT22;1778;47.966;7.854;2024-01-15T04:33:57;-0.90;99.90
3528;DHT22;1778;47.966;7.854;2024-01-15T04:34:58;-0.90;99.90
3528;DHT22;1778;47.966;7.854;2024-01-15T04:36:04;-0.90;99.90
3528;DHT22;1778;47.966;7.854;2024-01-15T04:37:07;-0.90;99.90
3528;DHT22;1778;47.966;7.854;2024-01-15T04:38:08;-0.80;99.90
3528;DHT22;1778;47.966;7.854;2024-01-15T04:39:09;-0.80;99.90
3528;DHT22;1778;47.966;7.854;2024-01-15T04:40:12;-0.80;99.90
3528;DHT22;1778;47.966;7.854;2024-01-15T04:41:14;-0.80;99.90
3528;DHT22;1778;47.966;7.854;2024-01-15T04:42:17;-0.80;99.90
3528;DHT22;1778;47.966;7.854;2024-01-15T04:43:18;-0.80;99.90
3528;DHT22;1778;47.966;7.854;2024-01-15T04:44:20;-0.70;99.90
3528;DHT22;1778;47.966;7.854;2024-01-15T04:45:21;-0.70;99.90
3528;DHT22;1778;47.966;7.854;2024-01-15T04:46:29;-0.70;99.90
3528;DHT22;1778;47.966;7.854;2024-01-15T04:47:30;-0.70;99.90
3528;DHT22;1778;47.966;7.854;2024-01-15T04:48:32;-0.70;99.90
3528;DHT22;1778;47.966;7.854;2024-01-15T04:49:33;-0.70;99.90
3528;DHT22;1778;47.966;7.854;2024-01-15T04:50:35;-0.70;99.90
3528;DHT22;1778;47.966;7.854;2024-01-15T04:51:36;-0.70;99.90
3528;DHT22;1778;47.966;7.854;2024-01-15T04:52:38;-0.70;99.90
3528;DHT22;1778;47.966;7.854;2024-01-15T04:53:41;-0.70;99.90
3528;DHT22;1778;47.966;7.854;2024-01-15T04:54:42;-0.70;99.90
3528;DHT22;1778;47.966;7.854;2024-01-15T04:55:44;-0.70;99.90
3528;DHT22;1778;47.966;7.854;2024-01-15T04:56:46;-0.80;99.90
3528;DHT22;1778;47.966;7.854;2024-01-15T04:57:48;-0.80;99.90
3528;DHT22;1778;47.966;7.854;2024-01-15T04:58:49;-0.80;99.90
3528;DHT22;1778;47.966;7.854;2024-01-15T04:59:51;-0.80;99.90
3528;DHT22;1778;47.966;7.854;2024-01-15T05:00:52;-0.80;99.90
3528;DHT22;1778;47.966;7.854;2024-01-15T05:01:55;-0.80;99.90
3528;DHT22;1778;47.966;7.854;2024-01-15T05:02:56;-0.70;99.90
3528;DHT22;1778;47.966;7.854;2024-01-15T05:03:58;-0.70;99.90
3528;DHT22;1778;47.966;7.854;2024-01-15T05:05:00;-0.80;99.90
3528;DHT22;1778;47.966;7.854;2024-01-15T05:06:02;-0.80;99.90
3528;DHT22;1778;47.966;7.854;2024-01-15T05:07:05;-0.80;99.90
3528;DHT22;1778;47.966;7.854;2024-01-15T05:08:06;-0.80;99.90
3528;DHT22;1778;47.966;7.854;2024-01-15T05:09:07;-0.80;99.90
3528;DHT22;1778;47.966;7.854;2024-01-15T05:10:09;-0.80;99.90
3528;DHT22;1778;47.966;7.854;2024-01-15T05:11:10;-0.80;99.90
3528;DHT22;1778;47.966;7.854;2024-01-15T05:12:12;-0.80;99.90
3528;DHT22;1778;47.966;7.854;2024-01-15T05:13:14;-0.80;99.90
3528;DHT22;1778;47.966;7.854;2024-01-15T05:14:16;-0.70;99.90
3528;DHT22;1778;47.966;7.854;2024-01-15T05:15:17;-0.70;99.90
3528;DHT22;1778;47.966;7.854;2024-01-15T05:16:19;-0.70;99.90
3528;DHT22;1778;47.966;7.854;2024-01-15T05:17:20;-0.70;99.90
3528;DHT22;1778;47.966;7.854;2024-01-15T05:18:22;-0.70;99.90
3528;DHT22;1778;47.966;7.854;2024-01-15T05:19:23;-0.70;99.90
3528;DHT22;1778;47.966;7.854;2024-01-15T05:20:25;-0.70;99.90
3528;DHT22;1778;47.966;7.854;2024-01-15T05:21:27;-0.70;99.90
3528;DHT22;1778;47.966;7.854;2024-01-15T05:22:28;-0.70;99.90
3528;DHT22;1778;47.966;7.854;2024-01-15T05:23:31;-0.60;99.90
3528;DHT22;1778;47.966;7.854;2024-01-15T05:24:33;-0.60;99.90
3528;DHT22;1778;47.966;7.854;2024-01-15T05:25:34;-0.60;99.90
3528;DHT22;1778;47.966;7.854;2024-01-15T05:26:36;-0.50;99.90
3528;DHT22;1778;47.966;7.854;2024-01-15T05:27:37;-0.50;99.90
3528;DHT22;1778;47.966;7.854;2024-01-15T05:28:41;-0.50;99.90
3528;DHT22;1778;47.966;7.854;2024-01-15T05:29:43;-0.50;99.90
3528;DHT22;1778;47.966;7.854;2024-01-15T05:30:45;-0.50;99.90
3528;DHT22;1778;47.966;7.854;2024-01-15T05:31:46;-0.50;99.90
3528;DHT22;1778;47.966;7.854;2024-01-15T05:32:48;-0.50;99.90
3528;DHT22;1778;47.966;7.854;2024-01-15T05:33:49;-0.50;99.90
3528;DHT22;1778;47.966;7.854;2024-01-15T05:34:51;-0.60;99.90
3528;DHT22;1778;47.966;7.854;2024-01-15T05:35:52;-0.60;99.90
3528;DHT22;1778;47.966;7.854;2024-01-15T05:36:55;-0.60;99.90
3528;DHT22;1778;47.966;7.854;2024-01-15T05:37:57;-0.60;99.90
3528;DHT22;1778;47.966;7.854;2024-01-15T05:38:58;-0.50;99.90
3528;DHT22;1778;47.966;7.854;2024-01-15T05:40:00;-0.40;99.90
3528;DHT22;1778;47.966;7.854;2024-01-15T05:41:02;-0.50;99.90
3528;DHT22;1778;47.966;7.854;2024-01-15T05:42:03;-0.50;99.90
3528;DHT22;1778;47.966;7.854;2024-01-15T05:43:05;-0.40;99.90
3528;DHT22;1778;47.966;7.854;2024-01-15T05:44:07;-0.40;99.90
3528;DHT22;1778;47.966;7.854;2024-01-15T05:45:08;-0.40;99.90
3528;DHT22;1778;47.966;7.854;2024-01-15T05:46:10;-0.40;99.90
3528;DHT22;1778;47.966;7.854;2024-01-15T05:47:12;-0.40;99.90
3528;DHT22;1778;47.966;7.854;2024-01-15T05:48:13;-0.40;99.90
3528;DHT22;1778;47.966;7.854;2024-01-15T05:49:15;-0.40;99.90
3528;DHT22;1778;47.966;7.854;2024-01-15T05:50:16;-0.40;99.90
3528;DHT22;1778;47.966;7.854;2024-01-15T05:51:18;-0.40;99.90
3528;DHT22;1778;47.966;7.854;2024-01-15T05:52:19;-0.40;99.90
3528;DHT22;1778;47.966;7.854;2024-01-15T05:53:22;-0.40;99.90
3528;DHT22;1778;47.966;7.854;2024-01-15T05:54:24;-0.40;99.90
3528;DHT22;1778;47.966;7.854;2024-01-15T05:55:25;-0.40;99.90
3528;DHT22;1778;47.966;7.854;2024-01-15T05:56:27;-0.40;99.90
3528;DHT22;1778;47.966;7.854;2024-01-15T05:57:28;-0.40;99.90
3528;DHT22;1778;47.966;7.854;2024-01-15T05:58:30;-0.40;99.90
3528;DHT22;1778;47.966;7.854;2024-01-15T05:59:31;-0.40;99.90
3528;DHT22;1778;47.966;7.854;2024-01-15T06:00:35;-0.50;99.90
3528;DHT22;1778;47.966;7.854;2024-01-15T06:01:39;-0.50;99.90
3528;DHT22;1778;47.966;7.854;2024-01-15T06:02:41;-0.50;99.90
3528;DHT22;1778;47.966;7.854;2024-01-15T06:03:42;-0.40;99.90
3528;DHT22;1778;47.966;7.854;2024-01-15T06:04:44;-0.40;99.90
3528;DHT22;1778;47.966;7.854;2024-01-15T06:05:45;-0.40;99.90
3528;DHT22;1778;47.966;7.854;2024-01-15T06:06:47;-0.40;99.90
3528;DHT22;1778;47.966;7.854;2024-01-15T06:07:48;-0.40;99.90
3528;DHT22;1778;47.966;7.854;2024-01-15T06:08:50;-0.40;99.90
3528;DHT22;1778;47.966;7.854;2024-01-15T06:09:52;-0.50;99.90
3528;DHT22;1778;47.966;7.854;2024-01-15T06:10:53;-0.50;99.90
3528;DHT22;1778;47.966;7.854;2024-01-15T06:12:01;-0.50;99.90
3528;DHT22;1778;47.966;7.854;2024-01-15T06:13:02;-0.50;99.90
3528;DHT22;1778;47.966;7.854;2024-01-15T06:14:04;-0.50;99.90
3528;DHT22;1778;47.966;7.854;2024-01-15T06:15:05;-0.50;99.90
3528;DHT22;1778;47.966;7.854;2024-01-15T06:16:16;-0.50;99.90
3528;DHT22;1778;47.966;7.854;2024-01-15T06:17:18;-0.50;99.90
3528;DHT22;1778;47.966;7.854;2024-01-15T06:18:20;-0.60;99.90
3528;DHT22;1778;47.966;7.854;2024-01-15T06:19:21;-0.60;99.90
3528;DHT22;1778;47.966;7.854;2024-01-15T06:20:24;-0.50;99.90
3528;DHT22;1778;47.966;7.854;2024-01-15T06:21:25;-0.50;99.90
3528;DHT22;1778;47.966;7.854;2024-01-15T06:22:27;-0.50;99.90
3528;DHT22;1778;47.966;7.854;2024-01-15T06:23:28;-0.50;99.90
3528;DHT22;1778;47.966;7.854;2024-01-15T06:24:30;-0.50;99.90
3528;DHT22;1778;47.966;7.854;2024-01-15T06:25:32;-0.50;99.90
3528;DHT22;1778;47.966;7.854;2024-01-15T06:26:34;-0.50;99.90
3528;DHT22;1778;47.966;7.854;2024-01-15T06:27:35;-0.50;99.90
3528;DHT22;1778;47.966;7.854;2024-01-15T06:28:37;-0.50;99.90
3528;DHT22;1778;47.966;7.854;2024-01-15T06:29:38;-0.50;99.90
3528;DHT22;1778;47.966;7.854;2024-01-15T06:30:40;-0.50;99.90
3528;DHT22;1778;47.966;7.854;2024-01-15T06:31:42;-0.40;99.90
3528;DHT22;1778;47.966;7.854;2024-01-15T06:32:43;-0.40;99.90
3528;DHT22;1778;47.966;7.854;2024-01-15T06:33:45;-0.40;99.90
3528;DHT22;1778;47.966;7.854;2024-01-15T06:34:50;-0.40;99.90
3528;DHT22;1778;47.966;7.854;2024-01-15T06:35:51;-0.40;99.90
3528;DHT22;1778;47.966;7.854;2024-01-15T06:36:52;-0.40;99.90
3528;DHT22;1778;47.966;7.854;2024-01-15T06:37:54;-0.40;99.90
3528;DHT22;1778;47.966;7.854;2024-01-15T06:38:56;-0.40;99.90
3528;DHT22;1778;47.966;7.854;2024-01-15T06:39:57;-0.40;99.90
3528;DHT22;1778;47.966;7.854;2024-01-15T06:40:59;-0.40;99.90
3528;DHT22;1778;47.966;7.854;2024-01-15T06:42:00;-0.40;99.90
3528;DHT22;1778;47.966;7.854;2024-01-15T06:43:01;-0.40;99.90
3528;DHT22;1778;47.966;7.854;2024-01-15T06:44:03;-0.40;99.90